createdAt,value
2018-03-14T00:00:19.201Z,13.60
2018-03-14T00:02:48.464Z,16.57
2018-03-14T00:05:19.077Z,16.90
2018-03-14T00:07:47.900Z,17.40
2018-03-14T00:10:17.514Z,12.87
2018-03-14T00:12:46.882Z,17.20
2018-03-14T00:15:15.719Z,15.77
2018-03-14T00:17:44.587Z,16.97
2018-03-14T00:20:14.192Z,19.90
2018-03-14T00:22:43.803Z,19.27
2018-03-14T00:25:13.405Z,23.97
2018-03-14T00:27:43.046Z,23.37
2018-03-14T00:30:11.884Z,24.03
2018-03-14T00:32:41.451Z,27.73
2018-03-14T00:35:11.094Z,27.37
2018-03-14T00:37:39.947Z,28.03
2018-03-14T00:40:08.798Z,26.40
2018-03-14T00:42:38.414Z,36.73
2018-03-14T00:45:08.013Z,28.00
2018-03-14T00:47:37.627Z,26.00
2018-03-14T00:50:07.230Z,28.17
2018-03-14T00:52:36.829Z,28.37
2018-03-14T00:55:06.449Z,31.73
2018-03-14T00:57:36.041Z,29.23
2018-03-14T01:00:05.788Z,28.63
2018-03-14T01:02:34.637Z,26.10
2018-03-14T01:05:03.484Z,27.63
2018-03-14T01:07:32.306Z,27.17
2018-03-14T01:10:01.161Z,27.07
2018-03-14T01:12:30.014Z,24.60
2018-03-14T01:14:58.829Z,22.80
2018-03-14T01:17:27.665Z,26.03
2018-03-14T01:19:56.603Z,24.73
2018-03-14T01:22:25.540Z,21.73
2018-03-14T01:24:54.394Z,20.17
2018-03-14T01:27:23.287Z,16.97
2018-03-14T01:29:52.129Z,22.80
2018-03-14T01:32:21.747Z,20.40
2018-03-14T01:34:51.382Z,19.80
2018-03-14T01:37:20.344Z,21.43
2018-03-14T01:39:49.157Z,24.47
2018-03-14T01:52:02.998Z,24.13
2018-03-14T01:54:32.617Z,23.50
2018-03-14T01:57:02.238Z,21.37
2018-03-14T01:59:31.086Z,22.27
2018-03-14T02:01:59.925Z,26.53
2018-03-14T02:04:28.773Z,27.87
2018-03-14T02:06:57.674Z,30.37
2018-03-14T02:09:27.306Z,29.50
2018-03-14T02:11:56.159Z,32.20
2018-03-14T02:14:25.057Z,33.13
2018-03-14T02:16:54.651Z,33.53
2018-03-14T02:19:23.490Z,33.53
2018-03-14T02:21:52.373Z,31.70
2018-03-14T02:24:21.230Z,31.43
2018-03-14T02:26:50.793Z,30.30
2018-03-14T02:29:20.477Z,39.83
2018-03-14T02:31:49.324Z,33.37
2018-03-14T02:34:18.155Z,31.80
2018-03-14T02:36:58.951Z,32.30
2018-03-14T02:39:27.810Z,31.87
2018-03-14T02:41:56.624Z,30.83
2018-03-14T02:44:25.479Z,29.13
2018-03-14T02:46:54.298Z,24.50
2018-03-14T02:49:23.920Z,25.67
2018-03-14T02:51:52.753Z,28.10
2018-03-14T02:54:21.596Z,26.50
2018-03-14T02:56:50.414Z,28.90
2018-03-14T02:59:19.494Z,26.97
2018-03-14T03:01:48.341Z,26.00
2018-03-14T03:04:17.958Z,21.57
2018-03-14T03:06:50.424Z,27.27
2018-03-14T03:09:20.068Z,26.97
2018-03-14T03:11:48.957Z,28.23
2018-03-14T03:14:17.785Z,25.93
2018-03-14T03:16:46.625Z,24.50
2018-03-14T03:19:16.233Z,30.10
2018-03-14T03:21:45.838Z,26.97
2018-03-14T03:24:14.698Z,27.00
2018-03-14T03:26:44.310Z,22.90
2018-03-14T03:29:13.919Z,27.33
2018-03-14T03:31:43.530Z,26.37
2018-03-14T03:34:13.137Z,26.80
2018-03-14T03:36:44.165Z,24.30
2018-03-14T03:39:12.985Z,27.23
2018-03-14T03:41:41.834Z,25.60
2018-03-14T03:44:10.666Z,25.87
2018-03-14T03:46:39.534Z,31.87
2018-03-14T03:49:08.378Z,30.23
2018-03-14T03:51:37.218Z,24.50
2018-03-14T03:54:06.060Z,24.93
2018-03-14T03:56:34.994Z,24.23
2018-03-14T03:59:03.837Z,22.60
2018-03-14T04:01:32.674Z,27.60
2018-03-14T04:04:01.528Z,27.00
2018-03-14T04:06:30.447Z,29.50
2018-03-14T04:08:59.270Z,30.17
2018-03-14T04:11:28.130Z,24.97
2018-03-14T04:13:56.988Z,35.93
2018-03-14T04:16:26.602Z,26.50
2018-03-14T04:18:56.230Z,28.17
2018-03-14T04:21:25.050Z,29.57
2018-03-14T04:23:53.953Z,28.87
2018-03-14T04:26:22.784Z,27.60
2018-03-14T04:28:52.397Z,24.90
2018-03-14T04:31:21.990Z,27.40
2018-03-14T04:33:51.599Z,25.30
2018-03-14T04:36:21.210Z,28.70
2018-03-14T04:38:50.814Z,27.30
2018-03-14T04:41:20.410Z,26.47
2018-03-14T04:43:50.057Z,28.20
2018-03-14T04:46:18.897Z,25.50
2018-03-14T04:48:47.875Z,24.10
2018-03-14T04:51:16.741Z,25.73
2018-03-14T04:53:45.586Z,24.97
2018-03-14T04:56:14.423Z,21.63
2018-03-14T04:58:43.290Z,23.07
2018-03-14T05:01:12.897Z,22.23
2018-03-14T05:03:42.486Z,23.57
2018-03-14T05:06:11.323Z,22.37
2018-03-14T05:08:40.173Z,25.00
2018-03-14T05:11:09.790Z,23.33
2018-03-14T05:13:39.432Z,24.00
2018-03-14T05:16:09.858Z,21.93
2018-03-14T05:18:39.809Z,22.20
2018-03-14T05:21:08.747Z,25.47
2018-03-14T05:23:39.589Z,23.60
2018-03-14T05:26:08.430Z,28.07
2018-03-14T05:28:40.700Z,23.13
2018-03-14T05:31:10.779Z,26.97
2018-03-14T05:33:39.658Z,27.23
2018-03-14T05:36:08.503Z,27.27
2018-03-14T05:38:37.348Z,32.60
2018-03-14T05:41:06.189Z,31.90
2018-03-14T05:43:35.797Z,26.30
2018-03-14T05:46:05.416Z,25.50
2018-03-14T05:48:34.786Z,27.63
2018-03-14T05:51:04.386Z,25.20
2018-03-14T05:53:33.232Z,31.73
2018-03-14T05:56:02.061Z,27.47
2018-03-14T05:58:31.249Z,28.47
2018-03-14T06:01:00.642Z,32.97
2018-03-14T06:03:29.934Z,30.17
2018-03-14T06:05:58.751Z,26.10
2018-03-14T06:08:27.608Z,29.27
2018-03-14T06:10:57.202Z,34.57
2018-03-14T06:13:26.061Z,33.60
2018-03-14T06:15:54.930Z,31.83
2018-03-14T06:18:23.817Z,30.33
2018-03-14T06:20:52.715Z,33.57
2018-03-14T06:23:22.199Z,31.43
2018-03-14T06:25:51.803Z,28.20
2018-03-14T06:28:21.425Z,28.70
2018-03-14T06:30:50.577Z,35.30
2018-03-14T06:33:19.414Z,35.13
2018-03-14T06:35:48.272Z,44.27
2018-03-14T06:38:18.502Z,34.27
2018-03-14T06:40:48.107Z,34.70
2018-03-14T06:43:17.709Z,30.53
2018-03-14T06:45:47.342Z,30.80
2018-03-14T06:48:16.204Z,27.97
2018-03-14T06:50:45.038Z,28.90
2018-03-14T06:53:13.895Z,31.70
2018-03-14T06:55:43.508Z,27.00
2018-03-14T07:01:40.222Z,33.73
2018-03-14T07:04:21.009Z,33.40
2018-03-14T07:06:50.466Z,29.50
2018-03-14T07:09:19.330Z,29.60
2018-03-14T07:11:48.973Z,25.33
2018-03-14T07:14:17.814Z,26.50
2018-03-14T07:16:46.662Z,28.00
2018-03-14T07:19:15.529Z,24.20
2018-03-14T07:21:45.146Z,24.93
2018-03-14T07:24:14.045Z,26.53
2018-03-14T07:26:42.883Z,23.07
2018-03-14T07:29:11.712Z,23.50
2018-03-14T07:31:40.578Z,23.00
2018-03-14T07:34:09.413Z,24.07
2018-03-14T07:36:38.250Z,24.30
2018-03-14T07:39:07.833Z,24.87
2018-03-14T07:41:36.695Z,21.07
2018-03-14T07:44:05.533Z,25.00
2018-03-14T07:46:35.141Z,25.23
2018-03-14T07:49:03.984Z,18.00
2018-03-14T07:51:33.618Z,21.13
2018-03-14T07:54:02.470Z,22.43
2018-03-14T07:56:32.086Z,20.03
2018-03-14T07:59:01.730Z,19.93
2018-03-14T08:01:30.581Z,16.30
2018-03-14T08:04:00.459Z,20.03
2018-03-14T08:06:29.295Z,18.67
2018-03-14T08:08:58.844Z,20.20
2018-03-14T08:11:27.811Z,15.73
2018-03-14T08:13:57.020Z,15.40
2018-03-14T08:16:26.595Z,16.23
2018-03-14T08:18:56.390Z,15.40
2018-03-14T08:21:25.213Z,15.93
2018-03-14T08:23:54.065Z,14.97
2018-03-14T08:26:23.705Z,18.33
2018-03-14T08:28:52.570Z,14.97
2018-03-14T08:31:22.819Z,17.20
2018-03-14T08:33:51.693Z,16.43
2018-03-14T08:36:20.523Z,14.77
2018-03-14T08:38:49.379Z,14.73
2018-03-14T08:41:18.194Z,13.80
2018-03-14T08:43:47.087Z,13.73
2018-03-14T08:46:15.932Z,14.43
2018-03-14T08:48:45.562Z,14.13
2018-03-14T08:51:15.194Z,15.10
2018-03-14T08:53:44.054Z,15.20
2018-03-14T08:56:13.500Z,14.20
2018-03-14T08:58:42.354Z,16.03
2018-03-14T09:01:11.211Z,14.87
2018-03-14T09:03:41.334Z,14.97
2018-03-14T09:06:10.925Z,16.70
2018-03-14T09:08:40.306Z,17.10
2018-03-14T09:11:10.712Z,20.07
2018-03-14T09:13:40.335Z,15.43
2018-03-14T09:16:09.188Z,16.47
2018-03-14T09:18:38.028Z,16.60
2018-03-14T09:21:07.777Z,16.33
2018-03-14T09:23:36.591Z,15.77
2018-03-14T09:26:05.465Z,16.77
2018-03-14T09:28:34.570Z,16.57
2018-03-14T09:31:03.389Z,15.17
2018-03-14T09:33:32.234Z,11.10
2018-03-14T09:36:01.698Z,9.63
2018-03-14T09:38:31.311Z,9.07
2018-03-14T09:41:00.922Z,7.63
2018-03-14T09:43:30.570Z,7.87
2018-03-14T09:46:00.176Z,7.03
2018-03-14T09:48:29.638Z,6.93
2018-03-14T09:50:58.798Z,6.97
2018-03-14T09:53:28.590Z,8.10
2018-03-14T09:55:58.485Z,8.13
2018-03-14T09:58:27.363Z,8.33
2018-03-14T10:00:57.003Z,8.87
2018-03-14T10:03:25.865Z,8.50
2018-03-14T10:05:55.459Z,5.23
2018-03-14T10:08:25.162Z,5.30
2018-03-14T10:10:53.991Z,5.50
2018-03-14T10:13:22.829Z,5.30
2018-03-14T10:15:52.496Z,5.80
2018-03-14T10:18:22.103Z,7.03
2018-03-14T10:20:50.909Z,7.20
2018-03-14T10:23:19.779Z,6.73
2018-03-14T10:25:48.693Z,6.40
2018-03-14T10:28:17.422Z,7.77
2018-03-14T10:30:47.034Z,6.50
2018-03-14T10:33:16.603Z,6.40
2018-03-14T10:35:45.470Z,7.03
2018-03-14T10:38:14.341Z,7.13
2018-03-14T10:40:44.128Z,7.47
2018-03-14T10:43:13.718Z,7.60
2018-03-14T10:45:42.559Z,7.93
2018-03-14T10:48:11.437Z,8.50
2018-03-14T10:50:41.363Z,8.50
2018-03-14T10:53:11.007Z,9.23
2018-03-14T10:55:40.646Z,8.67
2018-03-14T10:58:09.495Z,8.53
2018-03-14T11:00:44.116Z,8.90
2018-03-14T11:03:17.920Z,10.03
2018-03-14T11:05:46.787Z,10.00
2018-03-14T11:08:16.386Z,11.33
2018-03-14T11:10:45.997Z,8.53
2018-03-14T11:13:15.611Z,9.20
2018-03-14T11:15:45.216Z,9.93
2018-03-14T11:18:15.055Z,13.40
2018-03-14T11:20:43.889Z,12.37
2018-03-14T11:23:12.734Z,10.97
2018-03-14T11:25:41.585Z,10.10
2018-03-14T11:28:11.233Z,10.37
2018-03-14T11:30:40.083Z,10.10
2018-03-14T11:33:09.745Z,10.70
2018-03-14T11:35:39.082Z,13.07
2018-03-14T11:38:08.714Z,13.50
2018-03-14T11:40:37.543Z,13.07
2018-03-14T11:43:06.460Z,12.83
2018-03-14T11:45:35.278Z,14.07
2018-03-14T11:48:04.913Z,16.20
2018-03-14T11:50:33.765Z,15.47
2018-03-14T11:53:03.830Z,14.93
2018-03-14T11:55:33.454Z,15.17
2018-03-14T11:58:02.323Z,18.83
2018-03-14T12:00:31.207Z,17.97
2018-03-14T12:03:00.046Z,15.43
2018-03-14T12:05:28.900Z,12.10
2018-03-14T12:07:58.532Z,18.20
2018-03-14T12:10:28.148Z,23.20
2018-03-14T12:12:57.330Z,24.17
2018-03-14T12:15:26.216Z,21.10
2018-03-14T12:17:56.153Z,19.73
2018-03-14T12:20:24.994Z,19.40
2018-03-14T12:22:53.869Z,17.00
2018-03-14T12:25:22.690Z,14.70
2018-03-14T12:27:52.323Z,19.50
2018-03-14T12:30:21.194Z,18.60
2018-03-14T12:32:50.821Z,19.87
2018-03-14T12:35:19.690Z,18.50
2018-03-14T12:37:49.323Z,18.40
2018-03-14T12:40:18.191Z,16.37
2018-03-14T12:42:47.800Z,17.33
2018-03-14T12:45:16.668Z,17.67
2018-03-14T12:47:45.522Z,17.10
2018-03-14T12:50:14.399Z,16.53
2018-03-14T12:52:43.283Z,15.30
2018-03-14T12:55:12.166Z,15.90
2018-03-14T12:57:41.781Z,15.10
2018-03-14T13:00:10.655Z,16.23
2018-03-14T13:02:39.501Z,14.23
2018-03-14T13:05:08.378Z,15.43
2018-03-14T13:07:37.230Z,16.00
2018-03-14T13:10:06.852Z,15.67
2018-03-14T13:12:36.480Z,13.70
2018-03-14T13:15:05.326Z,15.30
2018-03-14T13:17:34.758Z,16.50
2018-03-14T13:20:04.353Z,14.93
2018-03-14T13:22:33.960Z,16.70
2018-03-14T13:25:03.578Z,16.53
2018-03-14T13:27:32.442Z,15.27
2018-03-14T13:30:02.043Z,16.90
2018-03-14T13:32:30.903Z,16.67
2018-03-14T13:34:59.758Z,16.80
2018-03-14T13:37:29.078Z,15.90
2018-03-14T13:39:58.049Z,15.53
2018-03-14T13:42:27.676Z,14.67
2018-03-14T13:44:56.537Z,17.10
2018-03-14T13:47:26.149Z,16.00
2018-03-14T13:49:55.746Z,16.03
2018-03-14T13:52:25.405Z,20.30
2018-03-14T13:54:55.085Z,16.73
2018-03-14T13:57:24.201Z,17.80
2018-03-14T13:59:53.072Z,17.57
2018-03-14T14:02:22.709Z,17.20
2018-03-14T14:04:51.562Z,17.10
2018-03-14T14:07:20.406Z,15.93
2018-03-14T14:09:49.253Z,16.30
2018-03-14T14:12:18.086Z,15.93
2018-03-14T14:14:46.951Z,15.60
2018-03-14T14:17:15.822Z,16.37
2018-03-14T14:19:45.422Z,17.63
2018-03-14T14:22:14.263Z,16.47
2018-03-14T14:24:43.126Z,16.57
2018-03-14T14:27:12.053Z,15.07
2018-03-14T14:29:40.837Z,15.60
2018-03-14T14:32:10.443Z,15.53
2018-03-14T14:34:39.315Z,15.00
2018-03-14T14:37:08.166Z,17.20
2018-03-14T14:39:37.977Z,16.17
2018-03-14T14:42:06.818Z,16.50
2018-03-14T14:44:37.213Z,16.37
2018-03-14T14:47:06.060Z,16.23
2018-03-14T14:49:35.695Z,16.30
2018-03-14T14:52:04.530Z,17.23
2018-03-14T14:54:34.147Z,18.03
2018-03-14T14:57:03.043Z,17.47
2018-03-14T14:59:31.842Z,16.57
2018-03-14T15:02:01.477Z,16.80
2018-03-14T15:04:30.334Z,17.27
2018-03-14T15:06:59.971Z,17.40
2018-03-14T15:09:28.831Z,17.30
2018-03-14T15:11:58.443Z,18.53
2018-03-14T15:14:27.558Z,17.10
2018-03-14T15:16:57.142Z,17.70
2018-03-14T15:19:26.774Z,17.53
2018-03-14T15:21:55.695Z,17.30
2018-03-14T15:24:24.531Z,18.03
2018-03-14T15:26:54.144Z,18.00
2018-03-14T15:29:23.750Z,18.17
2018-03-14T15:31:53.495Z,17.53
2018-03-14T15:34:23.029Z,18.50
2018-03-14T15:36:51.924Z,18.33
2018-03-14T15:39:20.766Z,18.50
2018-03-14T15:41:49.664Z,18.57
2018-03-14T15:44:20.790Z,18.60
2018-03-14T15:46:49.693Z,18.70
2018-03-14T15:49:18.547Z,19.03
2018-03-14T15:51:47.401Z,18.57
2018-03-14T15:54:16.291Z,18.67
2018-03-14T15:56:45.910Z,18.87
2018-03-14T15:59:15.547Z,17.63
2018-03-14T16:01:44.393Z,19.63
2018-03-14T16:04:14.025Z,18.87
2018-03-14T16:06:42.882Z,19.63
2018-03-14T16:09:12.900Z,21.03
2018-03-14T16:11:41.698Z,21.23
2018-03-14T16:14:11.344Z,21.80
2018-03-14T16:16:40.190Z,21.43
2018-03-14T16:19:09.827Z,21.17
2018-03-14T16:21:38.666Z,20.80
2018-03-14T16:24:08.298Z,18.90
2018-03-14T16:26:37.912Z,19.50
2018-03-14T16:29:06.803Z,20.50
2018-03-14T16:31:36.390Z,20.17
2018-03-14T16:34:06.058Z,19.03
2018-03-14T16:36:34.919Z,20.50
2018-03-14T16:39:04.017Z,20.70
2018-03-14T16:41:32.855Z,20.73
2018-03-14T16:44:01.697Z,20.40
2018-03-14T16:46:30.573Z,20.07
2018-03-14T16:49:00.199Z,21.13
2018-03-14T16:51:29.100Z,21.53
2018-03-14T16:53:58.692Z,21.93
2018-03-14T16:56:27.555Z,20.07
2018-03-14T16:58:56.420Z,22.57
2018-03-14T17:01:26.033Z,22.63
2018-03-14T17:03:54.882Z,23.50
2018-03-14T17:06:23.788Z,21.77
2018-03-14T17:08:52.667Z,21.60
2018-03-14T17:11:21.523Z,21.73
2018-03-14T17:13:50.361Z,21.37
2018-03-14T17:16:20.012Z,21.70
2018-03-14T17:18:48.871Z,23.13
2018-03-14T17:21:18.489Z,20.97
2018-03-14T17:23:48.101Z,23.43
2018-03-14T17:26:16.952Z,21.27
2018-03-14T17:28:45.798Z,22.10
2018-03-14T17:31:14.660Z,21.20
2018-03-14T17:33:44.291Z,22.33
2018-03-14T17:36:13.139Z,22.93
2018-03-14T17:38:42.427Z,21.50
2018-03-14T17:41:11.304Z,21.73
2018-03-14T17:43:40.135Z,21.60
2018-03-14T17:46:09.433Z,22.10
2018-03-14T17:48:39.064Z,23.90
2018-03-14T17:51:07.971Z,21.03
2018-03-14T17:53:36.819Z,20.67
2018-03-14T17:56:05.651Z,22.63
2018-03-14T17:58:35.300Z,21.90
2018-03-14T18:01:04.146Z,21.17
2018-03-14T18:03:33.000Z,21.37
2018-03-14T18:06:01.831Z,24.63
2018-03-14T18:08:30.669Z,21.87
2018-03-14T18:10:59.509Z,20.23
2018-03-14T18:13:29.131Z,21.40
2018-03-14T18:15:58.743Z,23.30
2018-03-14T18:18:28.366Z,23.80
2018-03-14T18:20:57.262Z,24.70
2018-03-14T18:23:26.118Z,22.03
2018-03-14T18:25:55.728Z,23.53
2018-03-14T18:28:25.381Z,22.50
2018-03-14T18:30:54.229Z,24.20
2018-03-14T18:33:23.859Z,24.70
2018-03-14T18:35:53.465Z,27.97
2018-03-14T18:38:22.333Z,23.80
2018-03-14T18:40:51.971Z,24.30
2018-03-14T18:43:20.862Z,25.10
2018-03-14T18:45:49.708Z,25.83
2018-03-14T18:48:18.561Z,25.50
2018-03-14T18:50:47.413Z,27.00
2018-03-14T18:53:16.361Z,24.97
2018-03-14T18:55:45.250Z,25.07
2018-03-14T18:58:14.094Z,26.30
2018-03-14T19:00:44.155Z,24.67
2018-03-14T19:03:12.988Z,25.53
2018-03-14T19:05:41.837Z,24.03
2018-03-14T19:08:10.682Z,23.93
2018-03-14T19:10:40.308Z,25.23
2018-03-14T19:13:09.911Z,23.80
2018-03-14T19:15:39.533Z,22.80
2018-03-14T19:18:09.145Z,25.23
2018-03-14T19:20:38.314Z,20.70
2018-03-14T19:23:07.956Z,22.90
2018-03-14T19:25:37.571Z,21.97
2018-03-14T19:28:06.551Z,21.60
2018-03-14T19:30:36.182Z,20.30
2018-03-14T19:33:05.057Z,22.03
2018-03-14T19:35:33.897Z,20.47
2018-03-14T19:38:03.519Z,19.13
2018-03-14T19:40:33.171Z,18.80
2018-03-14T19:43:02.036Z,18.97
2018-03-14T19:45:31.663Z,19.03
2018-03-14T19:48:00.507Z,18.03
2018-03-14T19:50:30.045Z,20.93
2018-03-14T19:52:59.451Z,19.53
2018-03-14T19:55:28.861Z,19.53
2018-03-14T19:57:59.159Z,18.93
2018-03-14T20:00:28.019Z,16.30
2018-03-14T20:02:56.863Z,16.17
2018-03-14T20:05:25.721Z,17.70
2018-03-14T20:07:54.603Z,20.93
2018-03-14T20:10:23.686Z,17.20
2018-03-14T20:12:53.296Z,16.27
2018-03-14T20:15:22.946Z,15.80
2018-03-14T20:17:51.791Z,17.17
2018-03-14T20:20:21.427Z,17.87
2018-03-14T20:22:50.267Z,19.67
2018-03-14T20:25:19.106Z,18.57
2018-03-14T20:27:48.933Z,21.40
2018-03-14T20:30:17.790Z,23.40
2018-03-14T20:32:47.402Z,22.70
2018-03-14T20:35:17.031Z,26.93
2018-03-14T20:37:45.897Z,19.70
2018-03-14T20:40:14.760Z,18.83
2018-03-14T20:42:43.598Z,21.10
2018-03-14T20:45:12.483Z,21.97
2018-03-14T20:47:41.668Z,25.80
2018-03-14T20:50:10.518Z,22.03
2018-03-14T20:52:39.379Z,20.97
2018-03-14T20:55:08.256Z,22.40
2018-03-14T20:57:37.088Z,21.37
2018-03-14T21:00:06.105Z,25.60
2018-03-14T21:02:37.217Z,20.60
2018-03-14T21:05:06.052Z,22.90
2018-03-14T21:07:34.931Z,23.97
2018-03-14T21:10:03.795Z,22.07
2018-03-14T21:12:32.650Z,21.80
2018-03-14T21:15:02.275Z,24.13
2018-03-14T21:17:31.155Z,22.90
2018-03-14T21:19:59.995Z,23.47
2018-03-14T21:22:29.689Z,22.40
2018-03-14T21:24:58.541Z,27.50
2018-03-14T21:27:28.166Z,29.50
2018-03-14T21:29:57.018Z,25.87
2018-03-14T21:32:26.634Z,28.80
2018-03-14T21:34:55.458Z,23.53
2018-03-14T21:37:24.372Z,25.63
2018-03-14T21:39:53.202Z,24.53
2018-03-14T21:42:22.036Z,28.00
2018-03-14T21:44:50.886Z,25.07
2018-03-14T21:47:19.751Z,28.50
2018-03-14T21:49:48.608Z,30.20
2018-03-14T21:52:17.451Z,29.43
2018-03-14T21:54:47.054Z,26.23
2018-03-14T21:57:19.465Z,24.83
2018-03-14T21:59:48.387Z,27.13
2018-03-14T22:02:17.247Z,27.53
2018-03-14T22:04:46.873Z,26.70
2018-03-14T22:07:16.211Z,28.13
2018-03-14T22:09:45.072Z,28.03
2018-03-14T22:12:13.914Z,26.10
2018-03-14T22:14:42.763Z,26.80
2018-03-14T22:17:11.606Z,28.37
2018-03-14T22:19:40.632Z,27.53
2018-03-14T22:22:09.481Z,27.57
2018-03-14T22:24:38.325Z,25.67
2018-03-14T22:27:07.197Z,28.17
2018-03-14T22:29:36.062Z,41.67
2018-03-14T22:32:05.677Z,35.07
2018-03-14T22:34:35.312Z,30.87
2018-03-14T22:37:04.225Z,27.70
2018-03-14T22:39:34.210Z,33.50
2018-03-14T22:42:03.066Z,32.67
2018-03-14T22:44:32.714Z,29.30
2018-03-14T22:47:01.615Z,37.00
2018-03-14T22:49:30.441Z,32.13
2018-03-14T22:51:59.614Z,31.27
2018-03-14T22:54:28.455Z,32.00
2018-03-14T22:56:58.091Z,29.90
2018-03-14T22:59:26.926Z,29.47
2018-03-14T23:01:56.787Z,27.83
2018-03-14T23:04:25.674Z,29.17
2018-03-14T23:06:54.534Z,26.50
2018-03-14T23:09:24.142Z,29.13
2018-03-14T23:11:53.750Z,30.63
2018-03-14T23:14:23.359Z,31.03
2018-03-14T23:16:52.994Z,28.43
2018-03-14T23:19:21.846Z,30.20
2018-03-14T23:21:50.682Z,30.77
2018-03-14T23:24:19.534Z,33.87
2018-03-14T23:26:49.171Z,31.83
2018-03-14T23:29:18.015Z,33.47
2018-03-14T23:31:46.875Z,28.17
2018-03-14T23:34:16.074Z,35.53
2018-03-14T23:36:44.928Z,30.53
2018-03-14T23:39:13.773Z,30.53
2018-03-14T23:41:42.610Z,34.80
2018-03-14T23:44:11.479Z,30.93
2018-03-14T23:46:40.318Z,37.37
2018-03-14T23:49:09.142Z,28.67
2018-03-14T23:51:38.786Z,34.53
2018-03-14T23:54:08.495Z,32.70
2018-03-14T23:56:37.358Z,31.20
2018-03-14T23:59:07.001Z,32.03
